Minto, Canada
Current Conditions -  °F | °C
As of 2:23 PM on Thursday 29 Jan 2015 (Local Time) from CYBR Reporting Station
Broken Clouds Broken Clouds  
Wind Chill: -1°   Ceiling: 1900
Heat Index:   Visibility: 12mi
Dew Point:   Wind: 6mph
Humidity: 73%   Direction: 30°NNE
Pressure: 30.52"   Gusts: NA
Location:  49.4°N, 100.02°W
Report Text: CYBR 292023Z 03005KT 360V070 12SM BKN019 M13/M17 A3052 RMK SC7 SLP374
Loading
Personal Weather Stations






























Interactive Weather Map New forecast layout! Learn more

10-Day Weather Forecast

Advertisements
Track Severe Weather on mobile